createdAt,value
2022-10-11T00:00:17.331Z,16.05
2022-10-11T00:02:44.252Z,16.73
2022-10-11T00:05:11.809Z,17.67
2022-10-11T00:07:39.039Z,16.95
2022-10-11T00:10:08.121Z,17.98
2022-10-11T00:12:35.602Z,20.48
2022-10-11T00:15:04.632Z,16.48
2022-10-11T00:17:32.550Z,17.25
2022-10-11T00:19:59.649Z,21.25
2022-10-11T00:22:26.704Z,19.00
2022-10-11T00:24:53.754Z,18.60
2022-10-11T00:27:20.640Z,19.55
2022-10-11T00:29:47.540Z,20.42
2022-10-11T00:32:14.432Z,18.98
2022-10-11T00:34:41.434Z,18.45
2022-10-11T00:37:08.695Z,21.73
2022-10-11T00:39:35.658Z,23.13
2022-10-11T00:42:02.745Z,19.75
2022-10-11T00:44:32.798Z,19.75
2022-10-11T00:47:05.068Z,24.55
2022-10-11T00:49:39.758Z,22.27
2022-10-11T00:52:29.123Z,20.80
2022-10-11T00:54:59.604Z,20.65
2022-10-11T00:57:31.536Z,24.88
2022-10-11T01:00:00.141Z,24.83
2022-10-11T01:02:27.857Z,18.00
2022-10-11T01:05:18.047Z,21.23
2022-10-11T01:07:44.680Z,19.15
2022-10-11T01:10:12.102Z,17.58
2022-10-11T01:13:22.676Z,21.50
2022-10-11T01:16:46.162Z,18.35
2022-10-11T01:19:43.168Z,19.93
2022-10-11T01:22:47.589Z,21.48
2022-10-11T01:25:49.011Z,24.08
2022-10-11T01:28:49.266Z,22.20
2022-10-11T01:31:36.202Z,23.65
2022-10-11T01:34:45.754Z,20.48
2022-10-11T01:37:32.881Z,21.73
2022-10-11T01:40:29.205Z,20.10
2022-10-11T01:42:57.450Z,22.15
2022-10-11T01:45:25.605Z,20.85
2022-10-11T01:48:12.756Z,23.58
2022-10-11T01:50:53.007Z,17.90
2022-10-11T01:53:46.108Z,25.48
2022-10-11T01:56:34.054Z,20.50
2022-10-11T01:59:12.577Z,26.63
2022-10-11T02:01:59.662Z,24.17
2022-10-11T02:04:43.657Z,22.40
2022-10-11T02:07:25.366Z,20.33
2022-10-11T02:10:23.078Z,23.23
2022-10-11T02:13:02.406Z,28.08
2022-10-11T02:15:36.762Z,29.55
2022-10-11T02:18:11.632Z,22.80
2022-10-11T02:20:42.594Z,21.60
2022-10-11T02:23:17.398Z,22.90
2022-10-11T02:25:47.913Z,25.27
2022-10-11T02:28:23.619Z,23.80
2022-10-11T02:30:53.661Z,21.88
2022-10-11T02:33:37.316Z,19.27
2022-10-11T02:36:19.122Z,26.52
2022-10-11T02:38:54.766Z,23.50
2022-10-11T02:41:39.304Z,22.98
2022-10-11T02:44:53.569Z,23.00
2022-10-11T02:47:20.784Z,24.50
2022-10-11T02:49:47.817Z,21.48
2022-10-11T02:52:14.747Z,22.55
2022-10-11T02:54:41.676Z,23.42
2022-10-11T02:57:08.601Z,26.95
2022-10-11T02:59:35.510Z,24.63
2022-10-11T03:02:02.604Z,22.83
2022-10-11T03:04:29.622Z,28.13
2022-10-11T03:06:56.515Z,25.17
2022-10-11T03:09:23.432Z,22.15
2022-10-11T03:11:50.440Z,25.13
2022-10-11T03:14:17.319Z,25.13
2022-10-11T03:16:44.317Z,26.20
2022-10-11T03:19:14.668Z,22.00
2022-10-11T03:21:45.344Z,26.58
2022-10-11T03:24:12.339Z,24.25
2022-10-11T03:26:39.534Z,25.92
2022-10-11T03:29:06.482Z,22.23
2022-10-11T03:31:33.434Z,29.77
2022-10-11T03:34:00.444Z,25.70
2022-10-11T03:36:27.673Z,27.33
2022-10-11T03:38:54.598Z,29.10
2022-10-11T03:41:21.542Z,26.88
2022-10-11T03:43:48.504Z,26.35
2022-10-11T03:46:15.646Z,30.60
2022-10-11T03:48:42.531Z,21.83
2022-10-11T03:51:09.677Z,23.50
2022-10-11T03:53:36.666Z,23.45
2022-10-11T03:56:08.335Z,22.20
2022-10-11T03:58:35.600Z,24.17
2022-10-11T04:01:02.501Z,21.85
2022-10-11T04:03:29.974Z,22.60
2022-10-11T04:05:56.901Z,25.45
2022-10-11T04:08:23.844Z,22.23
2022-10-11T04:10:50.961Z,21.95
2022-10-11T04:13:18.264Z,24.92
2022-10-11T04:15:45.537Z,26.33
2022-10-11T04:18:12.506Z,21.10
2022-10-11T04:20:39.403Z,22.95
2022-10-11T04:35:44.316Z,22.30
2022-10-11T04:38:11.450Z,20.08
2022-10-11T04:40:38.395Z,19.83
2022-10-11T04:43:05.340Z,17.17
2022-10-11T04:45:32.292Z,18.13
2022-10-11T04:47:59.254Z,14.35
2022-10-11T04:50:26.254Z,14.50
2022-10-11T04:52:53.287Z,16.42
2022-10-11T04:55:20.594Z,16.33
2022-10-11T04:57:47.493Z,14.70
2022-10-11T05:00:15.128Z,16.00
2022-10-11T05:02:42.498Z,13.43
2022-10-11T05:05:10.141Z,14.45
2022-10-11T05:07:37.189Z,12.57
2022-10-11T05:10:04.604Z,13.38
2022-10-11T05:12:31.588Z,14.77
2022-10-11T05:14:59.541Z,14.65
2022-10-11T05:17:26.434Z,13.13
2022-10-11T05:19:53.369Z,11.27
2022-10-11T05:22:21.056Z,13.95
2022-10-11T05:24:48.006Z,13.82
2022-10-11T05:27:14.955Z,10.40
2022-10-11T05:29:41.858Z,11.50
2022-10-11T05:32:08.752Z,13.23
2022-10-11T05:34:35.707Z,15.55
2022-10-11T05:37:02.916Z,10.98
2022-10-11T05:39:30.109Z,15.32
2022-10-11T05:41:57.395Z,12.23
2022-10-11T05:44:24.907Z,12.10
2022-10-11T05:46:52.032Z,16.83
2022-10-11T05:49:18.956Z,12.18
2022-10-11T05:51:45.974Z,9.68
2022-10-11T05:54:12.927Z,12.50
2022-10-11T05:56:39.831Z,8.68
2022-10-11T05:59:06.812Z,14.63
2022-10-11T06:01:33.884Z,11.57
2022-10-11T06:04:00.887Z,13.90
2022-10-11T06:06:28.250Z,14.45
2022-10-11T06:08:55.788Z,9.30
2022-10-11T06:11:26.750Z,13.18
2022-10-11T06:14:00.702Z,8.63
2022-10-11T06:16:28.253Z,11.68
2022-10-11T06:18:56.849Z,12.90
2022-10-11T06:21:24.605Z,16.23
2022-10-11T06:23:58.294Z,10.15
2022-10-11T06:26:27.283Z,12.52
2022-10-11T06:28:54.370Z,14.30
2022-10-11T06:31:21.376Z,14.40
2022-10-11T06:33:48.288Z,12.60
2022-10-11T06:36:16.941Z,19.13
2022-10-11T06:38:45.479Z,12.52
2022-10-11T06:41:23.742Z,11.98
2022-10-11T06:43:51.206Z,18.35
2022-10-11T06:46:24.672Z,18.30
2022-10-11T06:48:55.033Z,15.63
2022-10-11T06:51:22.979Z,15.77
2022-10-11T06:53:52.236Z,17.55
2022-10-11T06:56:19.883Z,17.73
2022-10-11T06:58:47.345Z,18.52
2022-10-11T07:01:18.594Z,16.00
2022-10-11T07:03:45.942Z,16.90
2022-10-11T07:06:26.132Z,14.20
2022-10-11T07:08:54.050Z,18.08
2022-10-11T07:11:27.225Z,20.55
2022-10-11T07:14:01.228Z,14.70
2022-10-11T07:16:29.074Z,15.45
2022-10-11T07:19:01.508Z,14.85
2022-10-11T07:21:31.077Z,14.10
2022-10-11T07:23:58.555Z,16.27
2022-10-11T07:26:25.630Z,15.43
2022-10-11T07:28:52.648Z,15.13
2022-10-11T07:31:25.183Z,15.00
2022-10-11T07:33:53.144Z,16.73
2022-10-11T07:36:20.557Z,18.05
2022-10-11T07:38:48.302Z,14.70
2022-10-11T07:41:15.838Z,13.30
2022-10-11T07:43:43.695Z,15.23
2022-10-11T07:46:11.262Z,17.85
2022-10-11T07:48:38.753Z,16.33
2022-10-11T07:51:08.257Z,16.95
2022-10-11T07:53:50.628Z,16.15
2022-10-11T07:56:27.201Z,16.75
2022-10-11T07:59:01.441Z,19.23
2022-10-11T08:01:29.125Z,17.00
2022-10-11T08:03:57.300Z,14.75
2022-10-11T08:06:29.736Z,19.67
2022-10-11T08:09:00.496Z,14.32
2022-10-11T08:11:37.066Z,14.43
2022-10-11T08:14:08.762Z,15.45
2022-10-11T08:16:38.207Z,17.52
2022-10-11T08:19:07.411Z,16.10
2022-10-11T08:21:34.852Z,14.23
2022-10-11T08:24:04.644Z,15.00
2022-10-11T08:26:32.900Z,14.48
2022-10-11T08:29:05.186Z,16.45
2022-10-11T08:31:34.274Z,12.68
2022-10-11T08:34:01.268Z,14.30
2022-10-11T08:36:28.398Z,16.35
2022-10-11T08:38:55.389Z,13.95
2022-10-11T08:41:42.482Z,34.67
2022-10-11T08:45:10.173Z,15.60
2022-10-11T08:47:43.048Z,12.50
2022-10-11T08:50:23.553Z,12.32
2022-10-11T08:53:11.024Z,15.30
2022-10-11T08:55:45.040Z,16.40
2022-10-11T08:58:19.191Z,13.30
2022-10-11T09:00:52.579Z,13.75
2022-10-11T09:03:40.695Z,18.67
2022-10-11T09:06:33.788Z,12.63
2022-10-11T09:09:45.968Z,11.57
2022-10-11T09:12:53.695Z,15.20
2022-10-11T09:15:57.048Z,14.85
2022-10-11T09:18:50.516Z,16.63
2022-10-11T09:21:55.727Z,12.88
2022-10-11T09:24:53.582Z,12.23
2022-10-11T09:28:01.349Z,17.27
2022-10-11T09:30:25.470Z,19.33
2022-10-11T09:33:02.885Z,13.35
2022-10-11T09:35:39.331Z,11.55
2022-10-11T09:38:22.311Z,17.40
2022-10-11T09:41:18.578Z,14.80
2022-10-11T09:43:49.465Z,13.88
2022-10-11T09:46:36.676Z,12.13
2022-10-11T09:49:12.925Z,10.90
2022-10-11T09:51:49.668Z,14.25
2022-10-11T09:54:22.323Z,10.82
2022-10-11T09:56:49.314Z,14.02
2022-10-11T09:59:31.452Z,15.25
2022-10-11T10:02:14.232Z,13.77
2022-10-11T10:04:58.260Z,14.63
2022-10-11T10:07:26.054Z,31.98
2022-10-11T10:09:53.273Z,11.38
2022-10-11T10:12:26.226Z,14.68
2022-10-11T10:15:19.638Z,12.93
2022-10-11T10:17:53.145Z,13.98
2022-10-11T10:20:36.704Z,12.50
2022-10-11T10:23:20.562Z,14.02
2022-10-11T10:25:54.571Z,17.73
2022-10-11T10:28:27.341Z,13.10
2022-10-11T10:30:57.924Z,12.65
2022-10-11T10:33:32.782Z,15.20
2022-10-11T10:36:24.715Z,13.65
2022-10-11T10:39:01.578Z,18.45
2022-10-11T10:41:28.627Z,13.85
2022-10-11T10:44:00.913Z,12.75
2022-10-11T10:47:28.496Z,11.03
2022-10-11T10:50:17.654Z,14.00
2022-10-11T10:53:20.858Z,12.15
2022-10-11T10:56:10.900Z,14.73
2022-10-11T10:59:20.591Z,11.23
2022-10-11T11:02:39.043Z,13.55
2022-10-11T11:05:37.718Z,11.30
2022-10-11T11:08:46.960Z,12.48
2022-10-11T11:11:39.303Z,11.65
2022-10-11T11:14:52.488Z,13.38
2022-10-11T11:17:28.192Z,16.43
2022-10-11T11:20:22.171Z,14.43
2022-10-11T11:23:27.359Z,12.15
2022-10-11T11:26:19.034Z,16.17
2022-10-11T11:29:06.228Z,15.30
2022-10-11T11:31:50.485Z,18.77
2022-10-11T11:34:25.976Z,15.13
2022-10-11T11:37:25.165Z,16.35
2022-10-11T11:39:59.716Z,19.30
2022-10-11T11:43:01.079Z,18.08
2022-10-11T11:45:54.957Z,15.02
2022-10-11T11:48:25.803Z,14.82
2022-10-11T11:51:20.430Z,14.60
2022-10-11T11:54:13.552Z,10.70
2022-10-11T11:57:05.339Z,10.32
2022-10-11T11:59:42.092Z,11.80
2022-10-11T12:02:36.511Z,11.77
2022-10-11T12:05:08.248Z,12.70
2022-10-11T12:07:56.176Z,12.63
2022-10-11T12:10:49.994Z,11.82
2022-10-11T12:13:21.293Z,13.13
2022-10-11T12:16:12.340Z,12.40
2022-10-11T12:18:57.735Z,8.45
2022-10-11T12:21:36.100Z,14.50
2022-10-11T12:24:24.251Z,10.70
2022-10-11T12:26:58.584Z,11.55
2022-10-11T12:29:49.825Z,11.73
2022-10-11T12:32:28.882Z,11.77
2022-10-11T12:35:33.467Z,14.23
2022-10-11T12:38:29.393Z,10.55
2022-10-11T12:41:09.272Z,12.40
2022-10-11T12:44:30.373Z,10.40
2022-10-11T12:46:59.833Z,10.70
2022-10-11T12:49:41.608Z,10.27
2022-10-11T12:52:17.545Z,10.63
2022-10-11T12:55:02.241Z,14.43
2022-10-11T12:58:09.010Z,10.57
2022-10-11T13:00:51.068Z,9.50
2022-10-11T13:03:41.646Z,11.90
2022-10-11T13:06:18.540Z,10.57
2022-10-11T13:08:57.021Z,12.50
2022-10-11T13:11:33.735Z,13.32
2022-10-11T13:14:10.510Z,15.93
2022-10-11T13:17:03.947Z,15.60
2022-10-11T13:19:35.270Z,14.57
2022-10-11T13:22:15.083Z,16.83
2022-10-11T13:24:42.562Z,13.15
2022-10-11T13:27:24.833Z,14.13
2022-10-11T13:29:59.352Z,12.60
2022-10-11T13:32:30.539Z,10.88
2022-10-11T13:35:19.787Z,13.57
2022-10-11T13:37:49.910Z,16.40
2022-10-11T13:40:21.172Z,11.65
2022-10-11T13:42:51.838Z,14.30
2022-10-11T13:45:24.261Z,17.08
2022-10-11T13:47:54.902Z,13.50
2022-10-11T13:50:34.619Z,14.75
2022-10-11T13:53:24.498Z,13.75
2022-10-11T13:55:57.479Z,17.35
2022-10-11T13:58:42.548Z,13.15
2022-10-11T14:01:38.834Z,13.18
2022-10-11T14:04:11.999Z,18.27
2022-10-11T14:09:36.819Z,12.75
2022-10-11T14:12:35.572Z,13.48
2022-10-11T14:15:32.917Z,15.32
2022-10-11T14:18:01.774Z,12.93
2022-10-11T14:20:40.634Z,16.52
2022-10-11T14:23:07.800Z,13.90
2022-10-11T14:25:35.322Z,14.85
2022-10-11T14:28:02.597Z,14.57
2022-10-11T14:30:31.627Z,16.20
2022-10-11T14:33:01.471Z,12.57
2022-10-11T14:35:32.258Z,13.57
2022-10-11T14:38:00.055Z,18.95
2022-10-11T14:40:31.472Z,16.83
2022-10-11T14:42:58.679Z,15.85
2022-10-11T14:45:26.092Z,15.35
2022-10-11T14:47:53.198Z,12.45
2022-10-11T14:50:31.765Z,12.68
2022-10-11T14:53:01.521Z,13.48
2022-10-11T14:55:31.040Z,15.90
2022-10-11T14:57:58.404Z,20.63
2022-10-11T15:00:28.894Z,21.55
2022-10-11T15:02:57.019Z,14.85
2022-10-11T15:05:31.164Z,14.05
2022-10-11T15:08:00.699Z,16.65
2022-10-11T15:10:39.506Z,13.90
2022-10-11T15:13:07.759Z,14.65
2022-10-11T15:15:38.115Z,15.52
2022-10-11T15:18:08.489Z,24.70
2022-10-11T15:20:41.061Z,18.83
2022-10-11T15:23:10.296Z,11.57
2022-10-11T15:25:40.220Z,15.50
2022-10-11T15:28:08.054Z,12.38
2022-10-11T15:30:41.423Z,14.90
2022-10-11T15:33:09.926Z,17.25
2022-10-11T15:35:36.966Z,14.32
2022-10-11T15:38:06.801Z,15.93
2022-10-11T15:40:36.852Z,16.98
2022-10-11T15:43:05.955Z,20.33
2022-10-11T15:45:34.951Z,15.43
2022-10-11T15:48:02.060Z,18.58
2022-10-11T15:50:38.952Z,16.15
2022-10-11T15:53:15.673Z,16.27
2022-10-11T15:55:56.330Z,16.77
2022-10-11T15:58:30.255Z,17.27
2022-10-11T16:01:00.888Z,15.40
2022-10-11T16:03:30.465Z,15.93
2022-10-11T16:06:04.966Z,14.27
2022-10-11T16:08:33.902Z,14.35
2022-10-11T16:11:01.967Z,11.73
2022-10-11T16:13:29.233Z,17.00
2022-10-11T16:15:56.193Z,14.85
2022-10-11T16:18:23.603Z,18.92
2022-10-11T16:20:52.478Z,16.02
2022-10-11T16:23:21.982Z,17.20
2022-10-11T16:26:06.759Z,16.98
2022-10-11T16:28:34.878Z,17.13
2022-10-11T16:31:08.744Z,24.85
2022-10-11T16:33:45.689Z,34.88
2022-10-11T16:36:36.962Z,35.35
2022-10-11T16:39:22.314Z,31.20
2022-10-11T16:41:49.623Z,24.80
2022-10-11T16:44:20.738Z,35.58
2022-10-11T16:46:48.979Z,23.42
2022-10-11T16:49:18.827Z,19.33
2022-10-11T16:51:46.250Z,29.38
2022-10-11T16:54:16.589Z,55.33
2022-10-11T16:59:13.456Z,22.08
2022-10-11T17:01:41.012Z,43.00
2022-10-11T17:04:09.445Z,57.25
2022-10-11T17:06:37.762Z,45.78
2022-10-11T17:09:04.899Z,34.85
2022-10-11T17:11:31.961Z,37.45
2022-10-11T17:14:01.254Z,41.03
2022-10-11T17:16:29.425Z,39.55
2022-10-11T17:18:56.426Z,73.13
2022-10-11T17:21:24.199Z,67.25
2022-10-11T17:23:51.359Z,82.53
2022-10-11T17:26:26.334Z,73.43
2022-10-11T17:28:55.983Z,59.55
2022-10-11T17:31:24.248Z,81.45
2022-10-11T17:33:54.260Z,75.80
2022-10-11T17:36:30.643Z,57.25
2022-10-11T17:39:00.360Z,52.97
2022-10-11T17:41:31.775Z,61.33
2022-10-11T17:43:59.864Z,51.88
2022-10-11T17:46:28.280Z,38.83
2022-10-11T17:48:55.802Z,28.75
2022-10-11T17:51:23.412Z,57.35
2022-10-11T17:53:51.189Z,59.78
2022-10-11T17:56:28.097Z,74.72
2022-10-11T17:58:57.909Z,79.88
2022-10-11T18:01:28.444Z,53.65
2022-10-11T18:04:03.213Z,51.70
2022-10-11T18:06:34.285Z,55.30
2022-10-11T18:09:03.280Z,49.45
2022-10-11T18:11:30.545Z,36.88
2022-10-11T18:13:57.756Z,33.15
2022-10-11T18:16:28.619Z,30.38
2022-10-11T18:18:57.524Z,29.20
2022-10-11T18:21:29.979Z,28.30
2022-10-11T18:24:10.918Z,29.48
2022-10-11T18:26:39.863Z,29.25
2022-10-11T18:29:07.994Z,27.75
2022-10-11T18:31:35.460Z,29.45
2022-10-11T18:34:05.372Z,28.48
2022-10-11T18:36:33.200Z,23.27
2022-10-11T18:39:06.002Z,25.08
2022-10-11T18:41:35.240Z,27.33
2022-10-11T18:44:07.220Z,48.90
2022-10-11T18:46:34.991Z,40.83
2022-10-11T18:49:03.057Z,56.60
2022-10-11T18:51:39.496Z,48.80
2022-10-11T18:54:10.198Z,40.53
2022-10-11T18:56:37.302Z,28.80
2022-10-11T18:59:07.635Z,32.13
2022-10-11T19:01:41.894Z,31.27
2022-10-11T19:04:11.602Z,34.80
2022-10-11T19:06:43.533Z,35.10
2022-10-11T19:09:22.348Z,32.20
2022-10-11T19:11:53.585Z,25.60
2022-10-11T19:14:28.473Z,28.45
2022-10-11T19:16:56.718Z,29.33
2022-10-11T19:19:28.378Z,40.28
2022-10-11T19:21:55.769Z,40.90
2022-10-11T19:24:26.541Z,37.78
2022-10-11T19:26:58.426Z,42.83
2022-10-11T19:29:28.867Z,37.88
2022-10-11T19:31:59.757Z,36.70
2022-10-11T19:34:28.068Z,37.00
2022-10-11T19:36:56.877Z,31.80
2022-10-11T19:39:25.452Z,28.48
2022-10-11T19:41:53.332Z,21.70
2022-10-11T19:44:20.995Z,22.20
2022-10-11T19:46:52.426Z,23.75
2022-10-11T19:49:24.789Z,23.85
2022-10-11T19:51:53.954Z,17.98
2022-10-11T19:54:21.366Z,19.50
2022-10-11T19:56:48.881Z,22.15
2022-10-11T19:59:16.148Z,23.40
2022-10-11T20:01:46.619Z,16.45
2022-10-11T20:04:39.571Z,20.42
2022-10-11T20:07:04.734Z,21.02
2022-10-11T20:09:31.646Z,18.40
2022-10-11T20:11:59.246Z,13.82
2022-10-11T20:14:26.245Z,17.75
2022-10-11T20:16:53.272Z,18.05
2022-10-11T20:19:26.196Z,24.00
2022-10-11T20:21:54.993Z,20.05
2022-10-11T20:24:22.043Z,15.57
2022-10-11T20:26:48.918Z,22.98
2022-10-11T20:29:16.205Z,19.45
2022-10-11T20:31:43.108Z,21.48
2022-10-11T20:34:13.076Z,26.88
2022-10-11T20:36:40.027Z,26.58
2022-10-11T20:39:07.278Z,25.80
2022-10-11T20:41:39.852Z,28.48
2022-10-11T20:44:09.702Z,23.90
2022-10-11T20:46:39.805Z,27.52
2022-10-11T20:49:11.991Z,24.92
2022-10-11T20:51:41.690Z,22.70
2022-10-11T20:54:09.737Z,28.30
2022-10-11T20:56:37.894Z,32.63
2022-10-11T20:59:06.043Z,39.28
2022-10-11T21:01:38.642Z,32.75
2022-10-11T21:04:17.467Z,34.17
2022-10-11T21:06:44.405Z,29.70
2022-10-11T21:09:14.047Z,28.00
2022-10-11T21:11:43.812Z,35.72
2022-10-11T21:14:11.670Z,39.75
2022-10-11T21:16:38.780Z,28.85
2022-10-11T21:19:08.675Z,28.75
2022-10-11T21:21:35.650Z,23.80
2022-10-11T21:24:03.106Z,24.73
2022-10-11T21:26:31.136Z,24.08
2022-10-11T21:29:01.349Z,25.05
2022-10-11T21:31:32.881Z,21.48
2022-10-11T21:34:00.833Z,25.65
2022-10-11T21:36:28.060Z,20.23
2022-10-11T21:38:55.164Z,29.65
2022-10-11T21:41:30.135Z,26.67
2022-10-11T21:43:58.440Z,20.13
2022-10-11T21:49:19.795Z,27.02
2022-10-11T21:51:46.826Z,18.27
2022-10-11T21:54:13.963Z,21.15
2022-10-11T21:56:41.328Z,16.83
2022-10-11T21:59:11.269Z,20.60
2022-10-11T22:01:40.712Z,17.27
2022-10-11T22:04:07.840Z,15.43
2022-10-11T22:06:35.749Z,14.52
2022-10-11T22:09:03.983Z,14.70
2022-10-11T22:11:31.091Z,17.77
2022-10-11T22:13:58.040Z,14.88
2022-10-11T22:16:25.244Z,14.45
2022-10-11T22:18:54.020Z,13.38
2022-10-11T22:21:23.527Z,10.80
2022-10-11T22:23:53.473Z,13.40
2022-10-11T22:26:25.750Z,16.05
2022-10-11T22:28:53.452Z,14.70
2022-10-11T22:31:22.552Z,15.20
2022-10-11T22:34:00.500Z,14.70
2022-10-11T22:48:37.237Z,16.80
2022-10-11T22:51:04.825Z,13.20
2022-10-11T22:53:32.307Z,12.80
2022-10-11T22:55:59.328Z,10.85
2022-10-11T22:58:26.785Z,11.25
2022-10-11T23:00:53.703Z,14.88
2022-10-11T23:03:20.746Z,16.15
2022-10-11T23:05:58.179Z,16.85
2022-10-11T23:08:25.800Z,14.93
2022-10-11T23:10:53.082Z,21.70
2022-10-11T23:13:20.521Z,14.30
2022-10-11T23:15:47.589Z,16.35
2022-10-11T23:18:17.219Z,15.77
2022-10-11T23:20:44.249Z,16.35
2022-10-11T23:23:11.228Z,19.40
2022-10-11T23:25:38.171Z,21.33
2022-10-11T23:28:05.442Z,19.95
2022-10-11T23:30:32.675Z,23.35
2022-10-11T23:32:59.604Z,20.58
2022-10-11T23:35:26.545Z,21.85
2022-10-11T23:37:54.914Z,17.45
2022-10-11T23:40:22.039Z,24.40
2022-10-11T23:42:49.053Z,23.20
2022-10-11T23:45:16.112Z,22.77
2022-10-11T23:47:43.006Z,20.58
2022-10-11T23:50:10.254Z,21.60
2022-10-11T23:52:37.155Z,20.98
2022-10-11T23:55:04.471Z,21.83
2022-10-11T23:57:31.404Z,20.35
2022-10-11T23:59:58.438Z,21.85
